• Join FlightAware (Why Join?)
  • Login
  • US Flag 
09:43PM EST


 

Airport Tracker/Info


-or-


 

Live Flight TrackerFlight Track Log ✈ CSN6899 ✈ 29-Aug-2014 ✈ ZWWW / URC - ZLXY / XIY

Flight Track Log - Related Links

Times and Time Zones

All times are in EDT time to prevent confusion due to time zone crossing. See the CSN6899 flight status page for this flight to view local times or setup timezone preferences in your user account.

Time Position Orientation Groundspeed Altitude Reporting Facility
EDT Latitude Longitude Course Direction KTS MPH feet Rate Location/Type
01:17AM 43.8543 87.6485 113° Southeast  Level Estimated
01:18AM 43.8013 87.8225 113° Southeast  Level Estimated
01:19AM 43.7480 87.9961 113° Southeast  Level Estimated
01:20AM 43.6944 88.1695 113° Southeast  Level Estimated
01:21AM 43.6405 88.3425 113° Southeast  Level Estimated
01:22AM 43.5864 88.5153 113° Southeast  Level Estimated
01:23AM 43.5321 88.6877 113° Southeast  Level Estimated
01:24AM 43.4775 88.8598 114° Southeast  Level Estimated
01:25AM 43.4226 89.0316 114° Southeast  Level Estimated
01:26AM 43.3675 89.2031 114° Southeast  Level Estimated
01:27AM 43.3121 89.3742 114° Southeast  Level Estimated
01:28AM 43.2591 89.5369 114° Southeast  Level Estimated
01:29AM 43.2059 89.6993 114° Southeast  Level Estimated
01:30AM 43.1525 89.8614 114° Southeast  Level Estimated
01:31AM 43.0989 90.0232 114° Southeast  Level Estimated
01:32AM 43.0450 90.1848 114° Southeast  Level Estimated
01:33AM 42.9909 90.3460 115° Southeast  Level Estimated
01:34AM 42.9365 90.5070 115° Southeast  Level Estimated
01:35AM 42.8820 90.6677 115° Southeast  Level Estimated
01:36AM 42.8272 90.8281 115° Southeast  Level Estimated
01:37AM 42.7722 90.9882 115° Southeast  Level Estimated
01:38AM 42.7169 91.1480 115° Southeast  Level Estimated
01:39AM 42.6615 91.3076 115° Southeast  Level Estimated
01:40AM 42.6058 91.4668 115° Southeast  Level Estimated
01:41AM 42.5499 91.6258 115° Southeast  Level Estimated
01:42AM 42.4938 91.7845 116° Southeast  Level Estimated
01:43AM 42.4375 91.9429 116° Southeast  Level Estimated
01:44AM 42.3809 92.1010 116° Southeast  Level Estimated
01:45AM 42.3242 92.2589 116° Southeast  Level Estimated
01:46AM 42.2672 92.4164 116° Southeast  Level Estimated
01:47AM 42.2100 92.5737 116° Southeast  Level Estimated
01:48AM 42.1526 92.7307 116° Southeast  Level Estimated
01:49AM 42.0950 92.8874 116° Southeast  Level Estimated
01:50AM 42.0371 93.0438 116° Southeast  Level Estimated
01:51AM 41.9791 93.1999 117° Southeast  Level Estimated
01:52AM 41.9208 93.3557 117° Southeast  Level Estimated
01:53AM 41.8623 93.5113 117° Southeast  Level Estimated
01:54AM 41.8036 93.6666 117° Southeast  Level Estimated
01:55AM 41.7448 93.8216 117° Southeast  Level Estimated
01:56AM 41.6857 93.9763 117° Southeast  Level Estimated
01:57AM 41.6264 94.1307 117° Southeast  Level Estimated
01:58AM 41.5668 94.2848 117° Southeast  Level Estimated
01:59AM 41.5071 94.4387 117° Southeast  Level Estimated
02:00AM 41.4472 94.5922 117° Southeast  Level Estimated
02:01AM 41.3871 94.7455 118° Southeast  Level Estimated
02:02AM 41.3268 94.8985 118° Southeast  Level Estimated
02:03AM 41.2662 95.0512 118° Southeast  Level Estimated
02:04AM 41.2055 95.2037 118° Southeast  Level Estimated
02:05AM 41.1446 95.3558 118° Southeast  Level Estimated
02:06AM 41.0834 95.5077 118° Southeast  Level Estimated
02:07AM 41.0221 95.6592 118° Southeast  Level Estimated
02:08AM 40.9606 95.8105 118° Southeast  Level Estimated
02:09AM 40.8988 95.9616 118° Southeast  Level Estimated
02:10AM 40.8369 96.1123 118° Southeast  Level Estimated
02:11AM 40.7748 96.2628 119° Southeast  Level Estimated
02:12AM 40.7125 96.4129 119° Southeast  Level Estimated
02:13AM 40.6500 96.5628 119° Southeast  Level Estimated
02:14AM 40.5873 96.7124 119° Southeast  Level Estimated
02:15AM 40.5244 96.8618 119° Southeast  Level Estimated
02:16AM 40.4613 97.0108 119° Southeast  Level Estimated
02:17AM 40.3980 97.1596 119° Southeast  Level Estimated
02:18AM 40.3345 97.3081 119° Southeast  Level Estimated
02:19AM 40.2709 97.4563 119° Southeast  Level Estimated
02:20AM 40.2071 97.6042 119° Southeast  Level Estimated
02:21AM 40.1430 97.7519 120° Southeast  Level Estimated
02:22AM 40.0788 97.8992 120° Southeast  Level Estimated
02:23AM 40.0144 98.0463 120° Southeast  Level Estimated
02:24AM 39.9498 98.1931 120° Southeast  Level Estimated
02:25AM 39.8850 98.3397 120° Southeast  Level Estimated
02:26AM 39.8200 98.4859 120° Southeast  Level Estimated
02:27AM 39.7549 98.6319 120° Southeast  Level Estimated
02:28AM 39.6896 98.7776 120° Southeast  Level Estimated
02:29AM 39.6241 98.9231 120° Southeast  Level Estimated
02:30AM 39.5584 99.0682 120° Southeast  Level Estimated
02:31AM 39.4925 99.2131 120° Southeast  Level Estimated
02:32AM 39.4265 99.3577 121° Southeast  Level Estimated
02:33AM 39.3602 99.5021 121° Southeast  Level Estimated
02:34AM 39.2938 99.6461 121° Southeast  Level Estimated
02:35AM 39.2272 99.7899 121° Southeast  Level Estimated
02:36AM 39.1605 99.9334 121° Southeast  Level Estimated
02:37AM 39.0935 100.0767 121° Southeast  Level Estimated
02:38AM 39.0264 100.2196 121° Southeast  Level Estimated
02:39AM 38.9591 100.3623 121° Southeast  Level Estimated
02:40AM 38.8917 100.5048 121° Southeast  Level Estimated
02:41AM 38.8241 100.6469 121° Southeast  Level Estimated
02:42AM 38.7562 100.7888 121° Southeast  Level Estimated
02:43AM 38.6883 100.9304 122° Southeast  Level Estimated
02:44AM 38.6201 101.0718 122° Southeast  Level Estimated
02:45AM 38.5518 101.2129 122° Southeast  Level Estimated
02:46AM 38.4833 101.3537 122° Southeast  Level Estimated
02:47AM 38.4147 101.4942 122° Southeast  Level Estimated
02:48AM 38.3459 101.6345 122° Southeast  Level Estimated
02:49AM 38.2769 101.7745 122° Southeast  Level Estimated
02:50AM 38.2077 101.9142 122° Southeast  Level Estimated
02:51AM 38.1384 102.0537 122° Southeast  Level Estimated
02:52AM 38.0689 102.1929 122° Southeast  Level Estimated
02:53AM 37.9993 102.3319 122° Southeast  Level Estimated
02:54AM 37.9295 102.4706 123° Southeast  Level Estimated
02:55AM 37.8595 102.6090 123° Southeast  Level Estimated
02:56AM 37.7894 102.7471 123° Southeast  Level Estimated
02:57AM 37.7191 102.8850 123° Southeast  Level Estimated
02:58AM 37.6486 103.0227 123° Southeast  Level Estimated
02:59AM 37.5780 103.1600 123° Southeast  Level Estimated
03:00AM 37.5072 103.2971 123° Southeast  Level Estimated
03:01AM 37.4363 103.4340 123° Southeast  Level Estimated
03:02AM 37.3652 103.5706 123° Southeast  Level Estimated
03:03AM 37.2940 103.7069 123° Southeast  Level Estimated
03:04AM 37.2226 103.8430 123° Southeast  Level Estimated
03:05AM 37.1510 103.9788 123° Southeast  Level Estimated
03:06AM 37.0793 104.1144 124° Southeast  Level Estimated
03:07AM 37.0074 104.2497 124° Southeast  Level Estimated
03:08AM 36.9354 104.3847 124° Southeast  Level Estimated
03:09AM 36.8632 104.5195 124° Southeast  Level Estimated
03:10AM 36.7909 104.6541 124° Southeast  Level Estimated
03:11AM 36.7184 104.7884 124° Southeast  Level Estimated
03:12AM 36.6458 104.9224 124° Southeast  Level Estimated
03:13AM 36.5730 105.0562 124° Southeast  Level Estimated
03:14AM 36.5001 105.1897 124° Southeast  Level Estimated
03:15AM 36.4270 105.3230 124° Southeast  Level Estimated
03:16AM 36.3538 105.4560 124° Southeast  Level Estimated
03:17AM 36.2804 105.5888 124° Southeast  Level Estimated
03:18AM 36.2069 105.7213 124° Southeast  Level Estimated
03:19AM 36.1333 105.8536 125° Southeast  Level Estimated
03:20AM 36.0595 105.9856 125° Southeast  Level Estimated
03:21AM 35.9855 106.1174 125° Southeast  Level Estimated
03:22AM 35.9114 106.2489 125° Southeast  Level Estimated
03:23AM 35.8372 106.3802 125° Southeast  Level Estimated
03:24AM 35.7628 106.5112 125° Southeast  Level Estimated
03:25AM 35.6883 106.6420 125° Southeast  Level Estimated
03:26AM 35.6136 106.7726 125° Southeast  Level Estimated
03:27AM 35.5388 106.9029 125° Southeast  Level Estimated
03:28AM 35.4639 107.0329 125° Southeast  Level Estimated
03:29AM 35.3888 107.1628 125° Southeast  Level Estimated
03:30AM 35.3136 107.2923 125° Southeast  Level Estimated
03:31AM 35.2382 107.4217 125° Southeast  Level Estimated
03:32AM 35.1627 107.5508 126° Southeast  Level Estimated
03:33AM 35.0871 107.6796 126° Southeast  Level Estimated
03:34AM 35.0113 107.8083 126° Southeast  Level Estimated
03:35AM 34.9354 107.9366 126° Southeast  Level Estimated
03:36AM 34.8594 108.0648 126° Southeast  Level Estimated
03:37AM 34.7832 108.1927 126° Southeast  Level Estimated
03:38AM 34.7069 108.3204 126° Southeast  Level Estimated
03:39AM 34.6305 108.4478 126° Southeast  Level Estimated
03:40AM 34.5539 108.5750 126° Southeast  Level Estimated
03:41AM 34.4772 108.7020 126° Southeast  Level Estimated
03:42AM 34.4471 108.7516 126° Southeast  Level Estimated
03:43AM 34.4471 108.7516 North  Level Estimated
03:44AM 34.4471 108.7516 North  Level Estimated
03:45AM 34.4471 108.7516 North  Level Estimated
03:46AM 34.4471 108.7516 North  Level Estimated
03:47AM 34.4471 108.7516 North  Level Estimated
03:48AM 34.4471 108.7516 North  Level Estimated
03:49AM 34.4471 108.7516 North  Level Estimated
03:50AM 34.4471 108.7516 North  Level Estimated
03:51AM 34.4471 108.7516 North  Level Estimated
03:52AM 34.4471 108.7516 North  Level Estimated
03:53AM 34.4471 108.7516 North  Level Estimated
03:54AM 34.4471 108.7516 North  Level Estimated
03:55AM 34.4471 108.7516 North  Level Estimated
03:56AM 34.4471 108.7516 North  Level Estimated
03:57AM 34.4471 108.7516 North  Level Estimated
03:58AM 34.4471 108.7516 North  Level Estimated
03:59AM 34.4471 108.7516 North  Level Estimated
04:00AM 34.4471 108.7516 North  Level Estimated